createdAt,value
2023-02-25T00:01:44.448Z,100155.84
2023-02-25T00:04:15.575Z,100152.44
2023-02-25T00:06:42.558Z,100152.59
2023-02-25T00:09:11.421Z,100152.72
2023-02-25T00:11:38.603Z,100143.09
2023-02-25T00:14:05.681Z,100127.47
2023-02-25T00:16:32.878Z,100134.47
2023-02-25T00:18:59.983Z,100128.38
2023-02-25T00:21:29.671Z,100131.03
2023-02-25T00:24:00.137Z,100133.56
2023-02-25T00:26:31.572Z,100124.81
2023-02-25T00:28:58.503Z,100124.03
2023-02-25T00:31:26.066Z,100126.56
2023-02-25T00:33:53.581Z,100117.03
2023-02-25T00:36:24.071Z,100119.50
2023-02-25T00:38:53.540Z,100119.47
2023-02-25T00:41:23.675Z,100118.50
2023-02-25T00:43:56.424Z,100110.38
2023-02-25T00:46:24.965Z,100108.44
2023-02-25T00:48:52.359Z,100110.97
2023-02-25T00:51:25.351Z,100107.88
2023-02-25T00:53:53.808Z,100108.97
2023-02-25T00:56:21.067Z,100099.53
2023-02-25T00:58:50.299Z,100098.63
2023-02-25T01:01:24.440Z,100102.69
2023-02-25T01:03:53.971Z,100096.50
2023-02-25T01:06:21.693Z,100085.59
2023-02-25T01:08:49.591Z,100082.31
2023-02-25T01:11:27.808Z,100077.03
2023-02-25T01:13:57.152Z,100074.44
2023-02-25T01:16:27.577Z,100073.72
2023-02-25T01:19:00.613Z,100071.88
2023-02-25T01:21:34.302Z,100065.78
2023-02-25T01:24:06.740Z,100060.81
2023-02-25T01:26:38.260Z,100051.19
2023-02-25T01:29:10.471Z,100059.94
2023-02-25T01:31:38.373Z,100060.16
2023-02-25T01:34:08.043Z,100055.13
2023-02-25T01:36:35.756Z,100043.56
2023-02-25T01:39:04.404Z,100046.94
2023-02-25T01:41:33.395Z,100043.47
2023-02-25T01:44:17.626Z,100051.38
2023-02-25T01:46:47.191Z,100047.75
2023-02-25T01:49:44.789Z,100042.16
2023-02-25T01:52:16.153Z,100043.00
2023-02-25T01:54:45.307Z,100049.97
2023-02-25T01:57:15.627Z,100051.94
2023-02-25T01:59:44.045Z,100037.97
2023-02-25T02:02:19.206Z,100039.88
2023-02-25T02:04:50.921Z,100039.84
2023-02-25T02:07:22.986Z,100033.03
2023-02-25T02:10:00.054Z,100040.78
2023-02-25T02:12:34.290Z,100040.84
2023-02-25T02:15:04.499Z,100026.25
2023-02-25T02:17:40.336Z,100034.13
2023-02-25T02:20:13.333Z,100033.31
2023-02-25T02:22:42.962Z,100035.88
2023-02-25T02:25:28.124Z,100033.31
2023-02-25T02:28:19.840Z,100032.56
2023-02-25T02:31:24.959Z,100030.03
2023-02-25T02:34:19.550Z,100035.19
2023-02-25T02:37:04.473Z,100030.81
2023-02-25T02:40:26.039Z,100026.44
2023-02-25T02:43:20.021Z,100016.81
2023-02-25T02:46:28.905Z,100009.91
2023-02-25T02:49:05.895Z,100018.56
2023-02-25T02:51:44.758Z,100011.56
2023-02-25T02:54:14.995Z,100014.09
2023-02-25T02:56:45.047Z,100009.81
2023-02-25T02:59:25.444Z,100002.78
2023-02-25T03:02:06.693Z,100008.06
2023-02-25T03:04:38.413Z,99996.78
2023-02-25T03:07:10.651Z,99998.06
2023-02-25T03:09:46.365Z,100008.91
2023-02-25T03:12:13.436Z,100000.34
2023-02-25T03:14:40.616Z,99990.84
2023-02-25T03:17:14.040Z,99989.03
2023-02-25T03:19:45.176Z,99987.38
2023-02-25T03:22:19.656Z,99989.13
2023-02-25T03:24:53.753Z,99986.53
2023-02-25T03:27:34.465Z,99990.88
2023-02-25T03:30:13.135Z,99990.81
2023-02-25T03:32:45.208Z,99997.78
2023-02-25T03:35:14.758Z,99989.09
2023-02-25T03:37:46.809Z,99989.13
2023-02-25T03:40:15.818Z,99988.22
2023-02-25T03:42:48.809Z,99983.84
2023-02-25T03:45:17.355Z,99981.16
2023-02-25T03:47:44.560Z,99968.84
2023-02-25T03:50:19.251Z,99967.00
2023-02-25T03:52:48.584Z,99970.53
2023-02-25T03:55:35.470Z,99972.25
2023-02-25T03:58:02.894Z,99966.94
2023-02-25T04:00:33.047Z,99970.41
2023-02-25T04:03:00.641Z,99969.50
2023-02-25T04:05:28.207Z,99969.44
2023-02-25T04:07:57.614Z,99959.75
2023-02-25T04:10:26.467Z,99957.06
2023-02-25T04:12:53.384Z,99964.09
2023-02-25T04:15:21.075Z,99960.56
2023-02-25T04:17:48.055Z,99958.75
2023-02-25T04:20:17.316Z,99952.72
2023-02-25T04:22:44.433Z,99950.19
2023-02-25T04:25:11.524Z,99955.28
2023-02-25T04:27:38.391Z,99951.75
2023-02-25T04:30:05.963Z,99956.13
2023-02-25T04:32:32.903Z,99953.50
2023-02-25T04:35:03.235Z,99954.19
2023-02-25T04:37:31.078Z,99953.25
2023-02-25T04:39:58.528Z,99953.31
2023-02-25T04:42:25.526Z,99939.50
2023-02-25T04:44:52.381Z,99943.16
2023-02-25T04:47:19.340Z,99947.34
2023-02-25T04:49:46.331Z,99949.31
2023-02-25T04:52:16.091Z,99946.88
2023-02-25T04:54:43.042Z,99946.00
2023-02-25T04:57:11.849Z,99945.13
2023-02-25T04:59:39.537Z,99930.19
2023-02-25T05:02:07.636Z,99941.41
2023-02-25T05:04:38.661Z,99943.13
2023-02-25T05:07:07.242Z,99938.72
2023-02-25T05:09:34.559Z,99948.22
2023-02-25T05:12:02.028Z,99950.06
2023-02-25T05:14:30.022Z,99943.09
2023-02-25T05:16:58.308Z,99942.88
2023-02-25T05:19:25.899Z,99945.16
2023-02-25T05:21:53.686Z,99948.44
2023-02-25T05:24:23.813Z,99956.84
2023-02-25T05:26:51.804Z,99954.13
2023-02-25T05:29:19.294Z,99948.78
2023-02-25T05:31:46.364Z,99945.50
2023-02-25T05:34:13.469Z,99945.94
2023-02-25T05:36:40.730Z,99942.19
2023-02-25T05:39:07.650Z,99935.19
2023-02-25T05:41:34.490Z,99942.28
2023-02-25T05:44:01.438Z,99940.31
2023-02-25T05:46:28.617Z,99941.16
2023-02-25T05:48:55.625Z,99950.78
2023-02-25T05:51:23.832Z,99952.22
2023-02-25T05:53:52.242Z,99950.84
2023-02-25T05:56:25.671Z,99951.66
2023-02-25T05:58:52.940Z,99934.66
2023-02-25T06:01:27.958Z,99937.09
2023-02-25T06:03:58.672Z,99936.25
2023-02-25T06:06:28.198Z,99944.59
2023-02-25T06:08:55.145Z,99945.34
2023-02-25T06:11:25.247Z,99943.75
2023-02-25T06:13:53.837Z,99953.75
2023-02-25T06:16:22.100Z,99948.59
2023-02-25T06:18:51.518Z,99952.88
2023-02-25T06:21:19.068Z,99953.00
2023-02-25T06:23:45.978Z,99944.47
2023-02-25T06:26:14.782Z,99954.72
2023-02-25T06:28:42.249Z,99952.91
2023-02-25T06:31:11.401Z,99948.41
2023-02-25T06:33:39.410Z,99946.56
2023-02-25T06:36:07.749Z,99941.81
2023-02-25T06:38:36.202Z,99942.28
2023-02-25T06:41:14.271Z,99933.56
2023-02-25T06:43:42.297Z,99943.75
2023-02-25T06:46:12.116Z,99949.63
2023-02-25T06:48:39.466Z,99953.78
2023-02-25T06:51:11.513Z,99951.00
2023-02-25T06:53:39.767Z,99947.06
2023-02-25T06:56:08.436Z,99948.09
2023-02-25T06:58:35.676Z,99946.78
2023-02-25T07:01:10.120Z,99939.97
2023-02-25T07:03:37.837Z,99943.16
2023-02-25T07:06:05.271Z,99946.84
2023-02-25T07:08:32.605Z,99956.44
2023-02-25T07:11:25.328Z,99951.91
2023-02-25T07:13:52.309Z,99957.13
2023-02-25T07:16:19.639Z,99954.59
2023-02-25T07:18:46.910Z,99961.38
2023-02-25T07:21:14.721Z,99952.66
2023-02-25T07:23:42.424Z,99955.50
2023-02-25T07:26:11.494Z,99955.50
2023-02-25T07:28:39.464Z,99961.72
2023-02-25T07:31:15.682Z,99961.81
2023-02-25T07:33:43.673Z,99948.50
2023-02-25T07:36:12.019Z,99940.66
2023-02-25T07:38:39.589Z,99933.41
2023-02-25T07:41:08.950Z,99943.81
2023-02-25T07:43:36.012Z,99927.53
2023-02-25T07:46:03.777Z,99932.13
2023-02-25T07:48:31.198Z,99931.06
2023-02-25T07:51:08.568Z,99934.91
2023-02-25T07:53:36.127Z,99938.19
2023-02-25T07:56:03.227Z,99936.28
2023-02-25T07:58:30.134Z,99934.16
2023-02-25T08:00:57.161Z,99936.88
2023-02-25T08:03:24.298Z,99933.06
2023-02-25T08:05:54.163Z,99937.03
2023-02-25T08:08:22.241Z,99930.03
2023-02-25T08:10:49.710Z,99925.66
2023-02-25T08:13:16.656Z,99927.50
2023-02-25T08:15:44.529Z,99923.00
2023-02-25T08:18:11.836Z,99915.03
2023-02-25T08:20:38.758Z,99925.50
2023-02-25T08:23:06.481Z,99922.78
2023-02-25T08:25:33.439Z,99920.41
2023-02-25T08:28:01.184Z,99905.03
2023-02-25T08:30:28.188Z,99908.19
2023-02-25T08:32:55.182Z,99910.16
2023-02-25T08:35:22.140Z,99898.06
2023-02-25T08:37:48.993Z,99888.47
2023-02-25T08:40:17.296Z,99873.03
2023-02-25T08:42:45.512Z,99872.81
2023-02-25T08:45:12.597Z,99868.31
2023-02-25T08:47:39.461Z,99876.47
2023-02-25T08:50:06.653Z,99869.84
2023-02-25T08:52:33.830Z,99872.00
2023-02-25T08:55:02.115Z,99859.81
2023-02-25T08:57:29.956Z,99849.34
2023-02-25T08:59:57.086Z,99841.44
2023-02-25T09:02:24.440Z,99840.88
2023-02-25T09:04:51.834Z,99834.81
2023-02-25T09:07:18.845Z,99839.81
2023-02-25T09:09:45.879Z,99838.50
2023-02-25T09:12:12.811Z,99832.91
2023-02-25T09:14:39.706Z,99808.31
2023-02-25T09:17:06.960Z,99805.63
2023-02-25T09:19:34.275Z,99802.06
2023-02-25T09:22:01.888Z,99796.97
2023-02-25T09:24:30.203Z,99784.34
2023-02-25T09:26:57.195Z,99791.91
2023-02-25T09:29:24.151Z,99776.66
2023-02-25T09:31:51.254Z,99780.84
2023-02-25T09:34:18.465Z,99789.00
2023-02-25T09:36:45.387Z,99784.34
2023-02-25T09:39:13.465Z,99783.97
2023-02-25T09:41:56.021Z,99779.50
2023-02-25T09:44:28.484Z,99776.66
2023-02-25T09:47:25.005Z,99764.28
2023-02-25T09:49:53.937Z,99750.19
2023-02-25T09:52:41.952Z,99756.88
2023-02-25T09:55:22.931Z,99748.06
2023-02-25T09:58:11.256Z,99732.13
2023-02-25T10:00:48.535Z,99727.44
2023-02-25T10:03:26.755Z,99729.13
2023-02-25T10:06:03.111Z,99721.16
2023-02-25T10:08:48.020Z,99724.16
2023-02-25T10:11:34.088Z,99694.25
2023-02-25T10:14:33.935Z,99695.78
2023-02-25T10:17:32.869Z,99702.50
2023-02-25T10:20:25.140Z,99695.66
2023-02-25T10:23:07.337Z,99691.00
2023-02-25T10:25:41.137Z,99679.59
2023-02-25T10:28:16.480Z,99671.84
2023-02-25T10:31:03.960Z,99668.41
2023-02-25T10:33:37.045Z,99658.72
2023-02-25T10:36:16.385Z,99662.22
2023-02-25T10:38:50.030Z,99656.78
2023-02-25T10:41:17.823Z,99645.53
2023-02-25T10:43:45.935Z,99653.81
2023-02-25T10:46:54.193Z,99646.41
2023-02-25T10:49:26.046Z,99641.00
2023-02-25T10:52:03.303Z,99648.34
2023-02-25T10:54:35.533Z,99632.63
2023-02-25T10:57:12.721Z,99636.63
2023-02-25T10:59:40.972Z,99631.09
2023-02-25T11:02:28.096Z,99649.66
2023-02-25T11:04:55.880Z,99639.69
2023-02-25T11:07:33.116Z,99633.69
2023-02-25T11:10:19.577Z,99634.31
2023-02-25T11:12:53.860Z,99622.84
2023-02-25T11:15:31.673Z,99628.66
2023-02-25T11:18:23.718Z,99617.53
2023-02-25T11:21:02.000Z,99612.66
2023-02-25T11:24:01.767Z,99598.66
2023-02-25T11:26:33.551Z,99587.50
2023-02-25T11:29:09.493Z,99586.63
2023-02-25T11:31:40.813Z,99590.75
2023-02-25T11:34:21.297Z,99580.63
2023-02-25T11:36:50.953Z,99581.00
2023-02-25T11:39:27.860Z,99585.31
2023-02-25T11:42:01.913Z,99590.31
2023-02-25T11:44:42.710Z,99585.94
2023-02-25T11:47:26.121Z,99580.09
2023-02-25T11:50:05.165Z,99575.00
2023-02-25T11:52:39.108Z,99570.25
2023-02-25T11:55:21.557Z,99569.28
2023-02-25T11:57:54.393Z,99565.16
2023-02-25T12:00:29.839Z,99567.59
2023-02-25T12:03:15.257Z,99572.50
2023-02-25T12:05:47.898Z,99565.22
2023-02-25T12:08:20.668Z,99586.13
2023-02-25T12:10:59.833Z,99569.09
2023-02-25T12:14:04.157Z,99562.66
2023-02-25T12:16:49.702Z,99565.44
2023-02-25T12:19:44.994Z,99564.09
2023-02-25T12:22:13.286Z,99567.09
2023-02-25T12:24:52.249Z,99564.63
2023-02-25T12:27:47.438Z,99563.25
2023-02-25T12:30:47.331Z,99551.09
2023-02-25T12:33:32.017Z,99555.28
2023-02-25T12:36:38.864Z,99559.56
2023-02-25T12:39:34.691Z,99550.75
2023-02-25T12:42:30.716Z,99553.72
2023-02-25T12:45:36.315Z,99552.38
2023-02-25T12:48:35.262Z,99539.34
2023-02-25T12:51:29.447Z,99541.75
2023-02-25T12:54:17.907Z,99532.00
2023-02-25T12:57:08.998Z,99535.69
2023-02-25T12:59:42.140Z,99530.94
2023-02-25T13:02:35.323Z,99536.19
2023-02-25T13:05:37.300Z,99539.41
2023-02-25T13:08:28.637Z,99522.88
2023-02-25T13:11:31.334Z,99532.88
2023-02-25T13:14:37.409Z,99537.53
2023-02-25T13:17:04.549Z,99526.84
2023-02-25T13:20:15.614Z,99529.97
2023-02-25T13:22:48.053Z,99510.22
2023-02-25T13:25:44.901Z,99518.03
2023-02-25T13:28:40.672Z,99514.13
2023-02-25T13:31:35.953Z,99524.09
2023-02-25T13:34:30.589Z,99539.03
2023-02-25T13:37:21.052Z,99520.97
2023-02-25T13:39:56.107Z,99521.16
2023-02-25T13:42:41.686Z,99520.09
2023-02-25T13:45:24.765Z,99517.56
2023-02-25T13:48:07.981Z,99511.91
2023-02-25T13:50:56.943Z,99508.88
2023-02-25T13:53:41.753Z,99495.91
2023-02-25T13:56:37.640Z,99493.09
2023-02-25T13:59:26.381Z,99495.47
2023-02-25T14:02:41.272Z,99495.00
2023-02-25T14:05:58.338Z,99488.78
2023-02-25T14:08:48.741Z,99496.53
2023-02-25T14:11:37.024Z,99488.38
2023-02-25T14:14:25.931Z,99489.16
2023-02-25T14:17:23.851Z,99494.31
2023-02-25T14:20:13.608Z,99506.44
2023-02-25T14:22:53.746Z,99490.50
2023-02-25T14:25:20.690Z,99498.59
2023-02-25T14:28:28.569Z,99499.44
2023-02-25T14:31:10.624Z,99499.06
2023-02-25T14:33:59.095Z,99502.31
2023-02-25T14:36:41.122Z,99498.41
2023-02-25T14:39:32.320Z,99501.81
2023-02-25T14:42:18.492Z,99494.53
2023-02-25T14:45:09.270Z,99498.44
2023-02-25T14:47:46.478Z,99485.66
2023-02-25T14:50:20.478Z,99491.59
2023-02-25T14:52:51.615Z,99489.41
2023-02-25T14:55:29.468Z,99495.44
2023-02-25T14:58:16.946Z,99486.44
2023-02-25T15:01:14.315Z,99482.69
2023-02-25T15:04:04.934Z,99486.84
2023-02-25T15:06:37.961Z,99478.06
2023-02-25T15:09:38.617Z,99470.47
2023-02-25T15:12:20.817Z,99470.19
2023-02-25T15:15:05.639Z,99465.66
2023-02-25T15:18:02.850Z,99466.66
2023-02-25T15:20:33.235Z,99480.13
2023-02-25T15:23:07.966Z,99480.16
2023-02-25T15:25:38.387Z,99483.94
2023-02-25T15:28:30.084Z,99485.72
2023-02-25T15:31:00.463Z,99479.94
2023-02-25T15:33:47.631Z,99479.34
2023-02-25T15:36:14.506Z,99494.31
2023-02-25T15:38:56.453Z,99490.47
2023-02-25T15:41:29.226Z,99496.56
2023-02-25T15:44:01.509Z,99497.72
2023-02-25T15:46:48.254Z,99498.47
2023-02-25T15:49:34.548Z,99489.13
2023-02-25T15:52:04.796Z,99505.09
2023-02-25T15:54:31.736Z,99504.56
2023-02-25T15:57:05.141Z,99509.66
2023-02-25T16:00:04.892Z,99518.00
2023-02-25T16:02:34.849Z,99542.47
2023-02-25T16:05:24.820Z,99533.59
2023-02-25T16:08:05.759Z,99532.47
2023-02-25T16:10:42.163Z,99539.78
2023-02-25T16:13:16.465Z,99548.63
2023-02-25T16:15:50.292Z,99551.56
2023-02-25T16:18:20.227Z,99556.97
2023-02-25T16:20:51.272Z,99558.31
2023-02-25T16:23:19.174Z,99566.84
2023-02-25T16:26:09.969Z,99564.00
2023-02-25T16:29:10.902Z,99563.75
2023-02-25T16:32:00.395Z,99571.47
2023-02-25T16:34:41.702Z,99567.53
2023-02-25T16:37:20.229Z,99577.19
2023-02-25T16:39:47.605Z,99577.44
2023-02-25T16:42:17.233Z,99579.50
2023-02-25T16:44:48.245Z,99585.81
2023-02-25T16:47:24.082Z,99598.22
2023-02-25T16:49:53.204Z,99607.88
2023-02-25T16:52:32.881Z,99600.31
2023-02-25T16:55:12.392Z,99610.56
2023-02-25T16:57:39.604Z,99614.84
2023-02-25T17:00:15.963Z,99617.59
2023-02-25T17:02:46.962Z,99614.28
2023-02-25T17:05:26.715Z,99618.91
2023-02-25T17:08:00.482Z,99619.56
2023-02-25T17:10:32.197Z,99613.09
2023-02-25T17:13:03.001Z,99622.63
2023-02-25T17:15:33.252Z,99615.09
2023-02-25T17:18:11.799Z,99619.47
2023-02-25T17:20:38.862Z,99614.56
2023-02-25T17:23:13.640Z,99622.78
2023-02-25T17:25:43.350Z,99635.38
2023-02-25T17:28:19.949Z,99631.09
2023-02-25T17:30:47.500Z,99637.81
2023-02-25T17:33:28.308Z,99638.00
2023-02-25T17:36:09.566Z,99638.53
2023-02-25T17:38:38.997Z,99643.91
2023-02-25T17:41:06.426Z,99644.00
2023-02-25T17:43:36.931Z,99638.22
2023-02-25T17:46:16.683Z,99642.28
2023-02-25T17:48:50.241Z,99644.13
2023-02-25T17:51:17.609Z,99643.81
2023-02-25T17:53:48.466Z,99645.88
2023-02-25T17:56:23.000Z,99651.22
2023-02-25T17:58:52.621Z,99655.44
2023-02-25T18:01:26.170Z,99648.25
2023-02-25T18:03:53.798Z,99642.28
2023-02-25T18:06:34.552Z,99656.75
2023-02-25T18:09:04.443Z,99644.00
2023-02-25T18:11:37.973Z,99654.63
2023-02-25T18:14:43.829Z,99650.53
2023-02-25T18:17:26.086Z,99654.78
2023-02-25T18:19:56.531Z,99656.78
2023-02-25T18:22:46.642Z,99657.56
2023-02-25T18:25:30.841Z,99646.22
2023-02-25T18:27:58.272Z,99652.66
2023-02-25T18:30:27.394Z,99657.47
2023-02-25T18:32:54.793Z,99658.72
2023-02-25T18:35:22.323Z,99660.78
2023-02-25T18:37:51.039Z,99664.31
2023-02-25T18:40:30.646Z,99662.28
2023-02-25T18:42:58.791Z,99665.28
2023-02-25T18:45:27.886Z,99659.94
2023-02-25T18:47:57.016Z,99668.31
2023-02-25T18:50:25.024Z,99669.88
2023-02-25T18:52:52.042Z,99664.78
2023-02-25T18:55:22.086Z,99659.13
2023-02-25T18:57:49.506Z,99665.41
2023-02-25T19:00:18.492Z,99664.22
2023-02-25T19:03:02.372Z,99668.94
2023-02-25T19:05:29.920Z,99672.78
2023-02-25T19:07:57.518Z,99667.81
2023-02-25T19:10:31.863Z,99670.91
2023-02-25T19:13:05.269Z,99669.06
2023-02-25T19:15:33.083Z,99676.88
2023-02-25T19:18:00.636Z,99675.22
2023-02-25T19:20:27.731Z,99675.00
2023-02-25T19:22:55.065Z,99668.31
2023-02-25T19:25:28.285Z,99679.66
2023-02-25T19:27:57.187Z,99673.06
2023-02-25T19:30:27.663Z,99682.00
2023-02-25T19:32:55.557Z,99676.50
2023-02-25T19:35:23.461Z,99679.59
2023-02-25T19:37:50.446Z,99671.25
2023-02-25T19:40:17.412Z,99678.59
2023-02-25T19:42:45.093Z,99678.69
2023-02-25T19:45:15.106Z,99683.13
2023-02-25T19:47:42.433Z,99675.38
2023-02-25T19:50:10.022Z,99684.34
2023-02-25T19:52:37.121Z,99683.13
2023-02-25T19:55:05.368Z,99685.53
2023-02-25T19:57:33.274Z,99677.97
2023-02-25T20:00:00.595Z,99687.31
2023-02-25T20:02:27.736Z,99692.09
2023-02-25T20:04:55.247Z,99685.94
2023-02-25T20:07:22.325Z,99682.09
2023-02-25T20:09:49.548Z,99681.16
2023-02-25T20:12:16.640Z,99684.56
2023-02-25T20:14:44.190Z,99686.94
2023-02-25T20:17:11.289Z,99689.94
2023-02-25T20:19:38.353Z,99694.53
2023-02-25T20:22:08.712Z,99699.19
2023-02-25T20:24:36.253Z,99699.53
2023-02-25T20:27:03.202Z,99697.56
2023-02-25T20:29:30.411Z,99698.63
2023-02-25T20:31:58.046Z,99695.03
2023-02-25T20:34:28.540Z,99701.06
2023-02-25T20:37:06.370Z,99699.34
2023-02-25T20:39:39.104Z,99703.47
2023-02-25T20:42:15.220Z,99700.63
2023-02-25T20:44:42.384Z,99701.50
2023-02-25T20:47:17.138Z,99702.47
2023-02-25T20:49:44.377Z,99703.66
2023-02-25T20:52:13.717Z,99701.38
2023-02-25T20:54:40.929Z,99697.09
2023-02-25T20:57:11.645Z,99697.38
2023-02-25T20:59:38.695Z,99698.47
2023-02-25T21:02:06.161Z,99701.09
2023-02-25T21:04:33.277Z,99694.50
2023-02-25T21:07:00.302Z,99691.63
2023-02-25T21:09:27.390Z,99691.31
2023-02-25T21:11:54.429Z,99697.41
2023-02-25T21:14:21.677Z,99695.66
2023-02-25T21:16:54.467Z,99700.25
2023-02-25T21:19:23.370Z,99691.16
2023-02-25T21:21:51.817Z,99701.50
2023-02-25T21:24:19.353Z,99698.81
2023-02-25T21:26:47.116Z,99706.44
2023-02-25T21:29:14.950Z,99712.88
2023-02-25T21:31:42.424Z,99718.53
2023-02-25T21:34:13.015Z,99717.81
2023-02-25T21:36:41.671Z,99725.56
2023-02-25T21:39:12.787Z,99715.44
2023-02-25T21:41:44.390Z,99717.19
2023-02-25T21:44:12.409Z,99706.56
2023-02-25T21:46:40.355Z,99703.41
2023-02-25T21:49:07.426Z,99705.69
2023-02-25T21:51:34.405Z,99715.19
2023-02-25T21:54:01.834Z,99707.53
2023-02-25T21:56:30.081Z,99710.03
2023-02-25T21:58:59.972Z,99705.56
2023-02-25T22:01:31.361Z,99704.56
2023-02-25T22:03:58.843Z,99710.13
2023-02-25T22:06:26.405Z,99692.84
2023-02-25T22:08:54.518Z,99695.69
2023-02-25T22:11:24.978Z,99696.00
2023-02-25T22:13:52.820Z,99694.72
2023-02-25T22:16:20.897Z,99698.31
2023-02-25T22:18:47.772Z,99692.25
2023-02-25T22:21:23.276Z,99688.41
2023-02-25T22:23:52.098Z,99690.66
2023-02-25T22:26:22.020Z,99695.97
2023-02-25T22:28:49.056Z,99692.16
2023-02-25T22:31:17.685Z,99691.56
2023-02-25T22:33:45.764Z,99692.72
2023-02-25T22:36:15.305Z,99687.59
2023-02-25T22:38:43.649Z,99684.47
2023-02-25T22:41:19.195Z,99683.97
2023-02-25T22:43:46.509Z,99683.72
2023-02-25T22:46:16.892Z,99693.50
2023-02-25T22:48:45.818Z,99686.09
2023-02-25T22:51:14.127Z,99690.50
2023-02-25T22:53:41.331Z,99672.06
2023-02-25T22:56:10.720Z,99680.16
2023-02-25T22:58:40.535Z,99675.94
2023-02-25T23:01:13.103Z,99674.84
2023-02-25T23:03:40.620Z,99656.88
2023-02-25T23:06:07.807Z,99670.75
2023-02-25T23:08:36.228Z,99676.69
2023-02-25T23:11:18.637Z,99689.91
2023-02-25T23:13:50.937Z,99688.25
2023-02-25T23:16:42.186Z,99686.69
2023-02-25T23:19:13.767Z,99687.09
2023-02-25T23:21:41.077Z,99688.06
2023-02-25T23:24:09.290Z,99683.97
2023-02-25T23:26:40.709Z,99693.78
2023-02-25T23:29:10.001Z,99688.00
2023-02-25T23:31:42.209Z,99688.72
2023-02-25T23:34:13.011Z,99688.56
2023-02-25T23:36:42.932Z,99684.72
2023-02-25T23:39:11.989Z,99688.56
2023-02-25T23:41:39.296Z,99695.38
2023-02-25T23:44:09.183Z,99696.44
2023-02-25T23:46:37.275Z,99697.78
2023-02-25T23:49:07.396Z,99704.88
2023-02-25T23:51:35.935Z,99701.50
2023-02-25T23:54:05.445Z,99716.59
2023-02-25T23:56:33.332Z,99703.47
2023-02-25T23:59:00.368Z,99710.50
